Time;durP1;ratioP1;P1;durP2;ratioP2;P2;SDS_P1;SDS_P2;PMS_P1;PMS_P2;Temp;Humidity;BMP_temperature;BMP_pressure;BME280_temperature;BME280_humidity;BME280_pressure;Samples;Min_cycle;Max_cycle;Signal;HPM_P1;HPM_P2
2023/05/23 00:00:27;;;;;;;7.43;5.93;;;23.30;35.30;;;;;;4994613;28;20604;-53
2023/05/23 00:02:53;;;;;;;6.83;5.07;;;23.30;35.50;;;;;;4994653;28;20175;-53
2023/05/23 00:05:19;;;;;;;6.70;6.00;;;23.30;36.00;;;;;;4994645;28;20455;-56
2023/05/23 00:07:45;;;;;;;6.10;5.50;;;23.30;36.20;;;;;;4994984;28;20413;-56
2023/05/23 00:10:12;;;;;;;6.43;5.83;;;23.30;36.20;;;;;;4994352;28;20645;-53
2023/05/23 00:12:41;;;;;;;6.00;5.17;;;23.30;36.20;;;;;;4994033;28;20972;-56
2023/05/23 00:15:08;;;;;;;7.23;4.90;;;23.30;36.30;;;;;;4994478;28;20430;-53
2023/05/23 00:17:36;;;;;;;7.77;4.90;;;23.40;35.90;;;;;;4994959;28;20453;-56
2023/05/23 00:20:03;;;;;;;7.77;5.90;;;23.40;36.20;;;;;;4994113;28;20441;-55
2023/05/23 00:22:29;;;;;;;9.33;6.37;;;23.30;36.30;;;;;;4994603;28;20421;-53
2023/05/23 00:24:56;;;;;;;15.07;6.80;;;23.30;37.40;;;;;;4994333;28;20871;-57
2023/05/23 00:27:22;;;;;;;15.17;7.13;;;23.30;38.80;;;;;;4994447;28;20183;-57
2023/05/23 00:29:48;;;;;;;18.13;7.23;;;23.30;38.80;;;;;;4994257;28;20414;-53
2023/05/23 00:32:14;;;;;;;8.87;6.77;;;23.20;39.60;;;;;;4994477;28;20512;-56
2023/05/23 00:34:40;;;;;;;10.63;7.77;;;23.10;40.00;;;;;;4994832;28;20179;-54
2023/05/23 00:37:05;;;;;;;10.67;7.73;;;23.00;41.20;;;;;;4994776;28;20185;-57
2023/05/23 00:39:31;;;;;;;16.13;7.50;;;22.90;42.00;;;;;;4994095;28;20784;-56
2023/05/23 00:41:57;;;;;;;18.40;10.80;;;22.80;42.80;;;;;;4994409;28;20415;-57
2023/05/23 00:44:23;;;;;;;11.43;7.90;;;22.80;42.70;;;;;;4994117;28;20419;-54
2023/05/23 00:46:53;;;;;;;13.17;8.37;;;22.70;42.90;;;;;;4994307;28;20689;-57
2023/05/23 00:49:20;;;;;;;13.23;7.77;;;22.70;43.40;;;;;;4994012;28;20167;-55
2023/05/23 00:51:46;;;;;;;10.73;8.50;;;22.70;44.00;;;;;;4994413;28;20462;-54
2023/05/23 00:54:13;;;;;;;8.87;6.90;;;22.60;44.30;;;;;;4994518;28;20896;-56
2023/05/23 00:56:40;;;;;;;9.83;7.30;;;22.60;44.20;;;;;;4993885;28;20438;-54
2023/05/23 00:59:06;;;;;;;13.73;7.90;;;22.60;45.10;;;;;;4993568;28;20417;-54
2023/05/23 01:01:32;;;;;;;13.77;10.00;;;22.50;45.20;;;;;;4993619;28;20513;-56
2023/05/23 01:03:58;;;;;;;10.07;6.90;;;22.50;45.80;;;;;;4993603;28;20493;-55
2023/05/23 01:06:24;;;;;;;9.87;7.50;;;22.50;45.70;;;;;;4993441;28;20301;-56
2023/05/23 01:08:50;;;;;;;10.90;7.73;;;22.50;45.70;;;;;;4993718;28;20417;-55
2023/05/23 01:11:31;;;;;;;12.77;8.33;;;22.50;45.80;;;;;;4993578;28;20210;-57
2023/05/23 01:14:09;;;;;;;11.40;8.13;;;22.50;46.00;;;;;;4993903;28;20398;-57
2023/05/23 01:16:47;;;;;;;13.90;8.17;;;22.40;46.00;;;;;;4993497;28;20496;-54
2023/05/23 01:19:35;;;;;;;8.87;6.73;;;22.20;46.80;;;;;;4993295;28;20464;-54
2023/05/23 01:22:09;;;;;;;8.80;6.97;;;22.10;47.30;;;;;;4993209;28;20949;-57
2023/05/23 01:24:45;;;;;;;10.03;7.67;;;22.10;47.90;;;;;;4992769;28;20406;-57
2023/05/23 01:27:47;;;;;;;9.23;7.00;;;22.00;47.10;;;;;;4993368;28;20501;-55
2023/05/23 01:30:17;;;;;;;9.87;8.03;;;22.00;48.10;;;;;;4894835;29;20422;-57
2023/05/23 01:32:44;;;;;;;8.73;7.70;;;21.90;48.10;;;;;;4976222;28;20569;-54
2023/05/23 01:35:10;;;;;;;11.67;7.33;;;22.00;48.40;;;;;;4993196;28;20434;-54
2023/05/23 01:37:36;;;;;;;11.43;8.53;;;22.00;47.90;;;;;;4993231;28;20418;-57
2023/05/23 01:40:03;;;;;;;13.70;7.60;;;21.90;48.10;;;;;;4993038;28;20417;-57
2023/05/23 01:42:29;;;;;;;11.40;7.67;;;21.90;47.80;;;;;;4993337;28;20237;-54
2023/05/23 01:44:58;;;;;;;9.73;8.13;;;21.90;48.10;;;;;;4993151;28;20434;-55
2023/05/23 01:47:24;;;;;;;8.40;7.50;;;21.90;48.20;;;;;;4993016;28;20439;-56
2023/05/23 01:49:51;;;;;;;7.90;6.83;;;21.90;48.50;;;;;;4992923;28;20501;-55
2023/05/23 01:52:17;;;;;;;8.50;7.70;;;21.90;48.90;;;;;;4992902;28;20995;-56
2023/05/23 01:54:43;;;;;;;10.30;8.53;;;21.90;48.60;;;;;;4993041;28;20948;-55
2023/05/23 01:57:10;;;;;;;13.17;9.10;;;21.90;48.50;;;;;;4993233;28;20402;-54
2023/05/23 01:59:37;;;;;;;11.10;8.77;;;21.80;48.30;;;;;;4992930;28;21148;-56
2023/05/23 02:02:03;;;;;;;8.60;7.50;;;21.90;48.30;;;;;;4993077;28;20947;-56
2023/05/23 02:04:29;;;;;;;7.77;6.97;;;21.80;48.50;;;;;;4992775;28;20434;-54
2023/05/23 02:06:55;;;;;;;12.20;8.23;;;21.80;48.60;;;;;;4992784;28;20413;-55
2023/05/23 02:09:21;;;;;;;9.70;7.93;;;21.80;48.20;;;;;;4992640;28;20788;-56
2023/05/23 02:11:47;;;;;;;8.27;7.47;;;21.80;48.20;;;;;;4992555;28;20688;-53
2023/05/23 02:14:12;;;;;;;9.57;7.07;;;21.90;48.20;;;;;;4992706;28;20180;-56
2023/05/23 02:16:38;;;;;;;11.40;8.50;;;21.90;48.50;;;;;;4992638;28;20203;-55
2023/05/23 02:19:04;;;;;;;9.73;7.50;;;21.70;48.60;;;;;;4992758;28;20171;-53
2023/05/23 02:21:30;;;;;;;10.97;8.87;;;21.60;48.60;;;;;;4992500;28;20179;-56
2023/05/23 02:23:56;;;;;;;9.33;7.53;;;21.60;48.80;;;;;;4992596;28;20171;-56
2023/05/23 02:26:22;;;;;;;13.00;9.83;;;21.50;48.90;;;;;;4992493;28;20445;-54
2023/05/23 02:28:47;;;;;;;8.50;7.50;;;21.50;48.90;;;;;;4992412;28;20183;-53
2023/05/23 02:31:13;;;;;;;7.67;6.90;;;21.50;48.60;;;;;;4992276;28;20203;-56
2023/05/23 02:33:39;;;;;;;7.97;7.17;;;21.50;48.60;;;;;;4992606;28;20250;-53
2023/05/23 02:36:05;;;;;;;8.13;6.70;;;21.60;48.60;;;;;;4993594;28;20202;-55
2023/05/23 02:38:31;;;;;;;8.00;7.20;;;21.60;48.50;;;;;;4996691;28;20433;-55
2023/05/23 02:40:57;;;;;;;10.63;8.93;;;21.60;48.40;;;;;;4996549;28;20836;-55
2023/05/23 02:43:23;;;;;;;8.43;7.53;;;21.60;48.50;;;;;;4996445;28;20183;-55
2023/05/23 02:45:48;;;;;;;7.90;7.10;;;21.60;48.40;;;;;;4996531;28;20199;-55
2023/05/23 02:48:15;;;;;;;9.97;7.13;;;21.70;48.50;;;;;;4996314;28;20410;-55
2023/05/23 02:50:40;;;;;;;11.60;6.97;;;21.60;48.30;;;;;;4995854;28;20176;-55
2023/05/23 02:53:06;;;;;;;10.20;7.63;;;21.60;48.50;;;;;;4996410;28;20411;-54
2023/05/23 02:55:32;;;;;;;9.53;7.07;;;21.60;48.60;;;;;;4995997;28;20569;-55
2023/05/23 02:57:57;;;;;;;8.43;7.47;;;21.60;48.80;;;;;;4995973;28;20720;-55
2023/05/23 03:00:24;;;;;;;8.07;6.10;;;21.60;48.80;;;;;;4995759;28;20179;-55
2023/05/23 03:02:50;;;;;;;8.80;6.60;;;21.60;48.60;;;;;;4996110;28;20190;-55
2023/05/23 03:05:16;;;;;;;8.70;7.03;;;21.60;48.70;;;;;;4995699;28;20457;-55
2023/05/23 03:07:42;;;;;;;7.77;7.00;;;21.60;48.70;;;;;;4996085;28;20447;-55
2023/05/23 03:10:09;;;;;;;8.47;7.57;;;21.60;48.80;;;;;;4995595;28;20501;-55
2023/05/23 03:12:35;;;;;;;7.83;6.50;;;21.60;48.60;;;;;;4995893;28;20458;-55
2023/05/23 03:15:01;;;;;;;6.67;5.87;;;21.60;48.70;;;;;;4995586;28;20943;-55
2023/05/23 03:17:27;;;;;;;9.73;6.70;;;21.60;48.80;;;;;;4996043;28;20422;-56
2023/05/23 03:19:53;;;;;;;7.83;6.63;;;21.60;48.60;;;;;;4995535;28;20186;-55
2023/05/23 03:22:19;;;;;;;8.17;6.73;;;21.60;48.60;;;;;;4995899;28;20598;-55
2023/05/23 03:24:44;;;;;;;7.90;6.90;;;21.60;48.80;;;;;;4995461;28;20290;-56
2023/05/23 03:27:10;;;;;;;6.23;5.70;;;21.60;48.80;;;;;;4995764;28;20437;-55
2023/05/23 03:29:36;;;;;;;7.73;6.67;;;21.60;48.80;;;;;;4995477;28;20176;-55
2023/05/23 03:32:01;;;;;;;8.27;7.10;;;21.60;48.80;;;;;;4995653;28;20199;-57
2023/05/23 03:34:27;;;;;;;7.97;6.70;;;21.60;48.70;;;;;;4995297;28;20186;-54
2023/05/23 03:36:53;;;;;;;8.93;6.90;;;21.60;48.80;;;;;;4995336;28;20175;-54
2023/05/23 03:39:18;;;;;;;8.17;6.63;;;21.60;48.80;;;;;;4995187;28;20206;-56
2023/05/23 03:41:44;;;;;;;10.63;6.60;;;21.60;48.80;;;;;;4995125;28;20576;-54
2023/05/23 03:44:10;;;;;;;7.27;6.50;;;21.60;49.20;;;;;;4995169;28;20175;-54
2023/05/23 03:46:36;;;;;;;6.97;6.33;;;21.50;48.80;;;;;;4995349;28;20195;-56
2023/05/23 03:49:02;;;;;;;7.17;6.47;;;21.50;49.10;;;;;;4994379;28;20179;-55
2023/05/23 03:51:28;;;;;;;7.90;6.90;;;21.60;49.50;;;;;;4994858;28;20632;-54
2023/05/23 03:53:54;;;;;;;8.73;6.60;;;21.50;49.70;;;;;;4994986;28;20172;-54
2023/05/23 03:56:20;;;;;;;6.83;6.23;;;21.60;49.60;;;;;;4994793;28;20430;-57
2023/05/23 03:58:45;;;;;;;13.00;7.20;;;21.60;49.50;;;;;;4995166;28;20253;-54
2023/05/23 04:01:12;;;;;;;10.37;7.27;;;21.60;49.40;;;;;;4994645;28;20442;-57
2023/05/23 04:03:38;;;;;;;7.03;6.43;;;21.60;49.20;;;;;;4995077;28;20269;-54
2023/05/23 04:06:04;;;;;;;8.50;6.87;;;21.70;49.50;;;;;;4994706;28;21129;-54
2023/05/23 04:08:32;;;;;;;7.60;6.90;;;21.60;49.60;;;;;;4994767;28;20183;-54
2023/05/23 04:11:00;;;;;;;12.90;7.37;;;21.60;50.10;;;;;;4994317;28;20492;-53
2023/05/23 04:13:25;;;;;;;7.93;7.20;;;21.60;50.10;;;;;;4994741;28;20409;-54
2023/05/23 04:15:51;;;;;;;9.70;8.10;;;21.60;50.00;;;;;;4994449;28;20430;-56
2023/05/23 04:18:17;;;;;;;8.17;7.47;;;21.60;49.90;;;;;;4994642;28;20438;-54
2023/05/23 04:20:43;;;;;;;9.33;8.20;;;21.60;49.60;;;;;;4994213;28;20175;-54
2023/05/23 04:23:09;;;;;;;10.00;7.80;;;21.60;50.00;;;;;;4994672;28;20407;-56
2023/05/23 04:25:34;;;;;;;10.43;8.37;;;21.60;50.50;;;;;;4994553;28;20901;-54
2023/05/23 04:28:00;;;;;;;9.83;8.93;;;21.60;50.70;;;;;;4994369;28;20538;-55
2023/05/23 04:30:29;;;;;;;8.63;7.43;;;21.70;50.30;;;;;;4994423;28;20214;-54
2023/05/23 04:32:57;;;;;;;8.63;7.40;;;21.70;50.10;;;;;;4994217;28;20207;-55
2023/05/23 04:35:22;;;;;;;7.63;6.80;;;21.80;50.20;;;;;;4994299;28;20469;-57
2023/05/23 04:37:48;;;;;;;8.03;7.27;;;21.80;50.10;;;;;;4994143;28;20839;-55
2023/05/23 04:40:14;;;;;;;8.83;7.93;;;21.80;50.40;;;;;;4994267;28;20179;-55
2023/05/23 04:42:43;;;;;;;9.60;7.93;;;21.90;50.50;;;;;;4994136;28;20195;-57
2023/05/23 04:45:10;;;;;;;9.03;8.13;;;21.90;50.80;;;;;;4993968;28;20481;-55
2023/05/23 04:47:36;;;;;;;10.00;9.00;;;22.60;51.10;;;;;;4994017;28;20423;-54
2023/05/23 04:50:03;;;;;;;8.03;7.23;;;22.00;50.50;;;;;;4993873;28;20414;-57
2023/05/23 04:52:29;;;;;;;14.83;8.57;;;22.00;50.50;;;;;;4994024;28;20458;-56
2023/05/23 04:54:55;;;;;;;10.40;8.97;;;22.00;50.20;;;;;;4994169;28;20438;-54
2023/05/23 04:57:21;;;;;;;8.93;8.03;;;22.00;50.50;;;;;;4993829;28;20425;-54
2023/05/23 04:59:47;;;;;;;11.17;8.50;;;22.00;50.70;;;;;;4993581;28;20438;-56
2023/05/23 05:02:12;;;;;;;10.67;8.63;;;22.00;50.60;;;;;;4993845;28;20202;-53
2023/05/23 05:04:38;;;;;;;7.43;6.80;;;22.00;50.40;;;;;;4993517;28;20241;-54
2023/05/23 05:07:04;;;;;;;9.30;7.60;;;22.10;50.20;;;;;;4993500;28;20226;-54
2023/05/23 05:09:30;;;;;;;10.33;8.20;;;22.10;50.50;;;;;;4993675;28;20214;-52
2023/05/23 05:11:58;;;;;;;8.70;7.80;;;22.10;50.50;;;;;;4993446;28;20454;-54
2023/05/23 05:14:25;;;;;;;8.33;7.43;;;22.20;50.70;;;;;;4993727;28;20458;-54
2023/05/23 05:16:51;;;;;;;9.57;8.57;;;22.20;50.70;;;;;;4993367;28;20460;-54
2023/05/23 05:19:17;;;;;;;11.83;9.30;;;22.20;50.70;;;;;;4993272;28;20423;-56
2023/05/23 05:21:42;;;;;;;10.80;9.70;;;22.30;50.80;;;;;;4993215;28;20920;-55
2023/05/23 05:24:08;;;;;;;8.53;7.00;;;22.30;50.70;;;;;;4993643;28;20258;-56
2023/05/23 05:26:35;;;;;;;13.43;8.90;;;22.30;50.70;;;;;;4993637;28;20199;-56
2023/05/23 05:29:01;;;;;;;9.83;8.50;;;22.30;50.60;;;;;;4993195;28;20677;-53
2023/05/23 05:31:28;;;;;;;9.03;8.03;;;22.40;50.60;;;;;;4992964;28;20821;-54
2023/05/23 05:33:54;;;;;;;10.00;8.30;;;22.40;50.80;;;;;;4993257;28;20776;-56
2023/05/23 05:36:20;;;;;;;12.47;9.63;;;22.40;50.90;;;;;;4993054;28;20438;-54
2023/05/23 05:38:46;;;;;;;10.50;9.20;;;22.50;50.80;;;;;;4993253;28;20421;-54
2023/05/23 05:41:12;;;;;;;11.00;9.90;;;22.50;50.40;;;;;;4992969;28;20418;-56
2023/05/23 05:43:38;;;;;;;12.40;9.73;;;22.60;50.40;;;;;;4993287;28;20419;-54
2023/05/23 05:46:03;;;;;;;17.33;12.80;;;22.60;50.80;;;;;;4993034;28;20342;-54
2023/05/23 05:48:29;;;;;;;11.57;10.13;;;22.50;50.20;;;;;;4993090;28;20705;-56
2023/05/23 05:50:55;;;;;;;11.67;10.27;;;22.50;50.40;;;;;;4992584;28;20765;-55
2023/05/23 05:53:21;;;;;;;12.13;11.03;;;22.50;50.50;;;;;;4992934;28;20190;-55
2023/05/23 05:55:46;;;;;;;12.43;11.23;;;22.50;50.60;;;;;;4993144;28;20199;-54
2023/05/23 05:58:12;;;;;;;11.13;10.23;;;22.50;50.40;;;;;;4993104;28;20186;-53
2023/05/23 06:00:41;;;;;;;15.60;11.43;;;21.90;50.20;;;;;;4975186;28;20229;-55
2023/05/23 06:03:07;;;;;;;14.20;12.77;;;22.60;50.60;;;;;;4993071;28;20205;-53
2023/05/23 06:05:33;;;;;;;17.73;12.30;;;22.60;51.00;;;;;;4992820;28;20545;-54
2023/05/23 06:07:59;;;;;;;16.47;13.60;;;22.70;51.20;;;;;;4992998;28;20415;-56
2023/05/23 06:10:25;;;;;;;15.90;14.30;;;22.70;51.20;;;;;;4992184;28;20177;-54
2023/05/23 06:12:51;;;;;;;14.80;13.40;;;22.70;51.50;;;;;;4992551;28;20203;-54
2023/05/23 06:15:17;;;;;;;16.60;15.10;;;22.70;51.40;;;;;;4992668;28;20422;-56
2023/05/23 06:17:43;;;;;;;19.00;17.10;;;22.70;51.10;;;;;;4992971;28;20186;-56
2023/05/23 06:20:10;;;;;;;18.57;16.77;;;22.70;51.50;;;;;;4992855;28;20212;-53
2023/05/23 06:22:36;;;;;;;17.27;15.47;;;22.70;51.70;;;;;;4993026;28;20471;-55
2023/05/23 06:25:02;;;;;;;21.30;19.37;;;22.70;51.60;;;;;;4992569;28;20426;-56
2023/05/23 06:27:28;;;;;;;19.37;17.37;;;22.80;51.50;;;;;;4992620;28;20630;-53
2023/05/23 06:29:53;;;;;;;19.17;17.37;;;22.80;51.20;;;;;;4992470;28;20430;-53
2023/05/23 06:32:19;;;;;;;18.57;16.77;;;22.80;50.80;;;;;;4992649;28;20211;-53
2023/05/23 06:34:45;;;;;;;19.63;17.87;;;22.70;51.70;;;;;;4992904;28;20222;-56
2023/05/23 06:37:10;;;;;;;18.80;16.90;;;22.70;51.00;;;;;;4992564;28;20681;-54
2023/05/23 06:39:36;;;;;;;17.67;15.90;;;22.70;50.80;;;;;;4992361;28;20179;-53
2023/05/23 06:42:03;;;;;;;20.63;18.83;;;22.70;50.20;;;;;;4992473;28;20187;-52
2023/05/23 06:44:29;;;;;;;19.40;17.30;;;22.70;50.50;;;;;;4992629;28;20191;-55
2023/05/23 06:46:56;;;;;;;19.70;17.77;;;22.70;51.50;;;;;;4992276;28;20407;-54
2023/05/23 06:49:25;;;;;;;19.83;17.90;;;22.70;50.80;;;;;;4992017;28;20191;-53
2023/05/23 06:51:51;;;;;;;22.43;18.00;;;22.70;50.60;;;;;;4992350;28;20496;-54
2023/05/23 06:54:17;;;;;;;17.07;15.60;;;22.70;50.30;;;;;;4992446;28;20409;-55
2023/05/23 06:56:43;;;;;;;19.07;17.17;;;22.70;49.90;;;;;;4992238;28;20430;-52
2023/05/23 06:59:09;;;;;;;19.00;17.07;;;22.70;49.50;;;;;;4992124;28;20866;-54
2023/05/23 07:01:35;;;;;;;19.00;17.10;;;22.70;49.00;;;;;;4991994;28;20406;-56
2023/05/23 07:04:01;;;;;;;18.20;16.60;;;22.60;48.90;;;;;;4992505;28;20206;-53
2023/05/23 07:06:26;;;;;;;18.37;16.67;;;22.60;49.20;;;;;;4992440;28;20215;-55
2023/05/23 07:08:53;;;;;;;17.30;15.60;;;22.60;49.00;;;;;;4993157;28;20183;-53
2023/05/23 07:11:20;;;;;;;18.00;16.30;;;22.60;49.00;;;;;;4992756;28;20206;-53
2023/05/23 07:13:46;;;;;;;18.17;16.67;;;22.70;48.80;;;;;;4993064;28;20465;-55
2023/05/23 07:16:12;;;;;;;17.13;15.40;;;22.60;48.80;;;;;;4991939;28;20509;-53
2023/05/23 07:18:38;;;;;;;17.73;15.90;;;22.70;49.40;;;;;;4992361;28;20689;-53
2023/05/23 07:21:04;;;;;;;17.80;16.07;;;22.70;48.60;;;;;;4991882;28;20410;-54
2023/05/23 07:23:35;;;;;;;16.33;13.50;;;22.70;48.70;;;;;;4993578;28;20262;-53
2023/05/23 07:26:01;;;;;;;17.83;16.03;;;22.80;48.70;;;;;;4995505;28;20277;-55
2023/05/23 07:28:27;;;;;;;16.40;14.67;;;22.90;48.90;;;;;;4995505;28;20438;-55
2023/05/23 07:30:56;;;;;;;17.20;15.60;;;23.00;48.50;;;;;;4994967;28;20793;-53
2023/05/23 07:33:22;;;;;;;14.77;13.33;;;23.10;49.00;;;;;;4995343;28;20407;-53
2023/05/23 07:35:47;;;;;;;15.70;14.30;;;23.30;48.90;;;;;;4995194;28;20513;-56
2023/05/23 07:38:13;;;;;;;16.17;14.57;;;23.40;48.40;;;;;;4995335;28;20175;-53
2023/05/23 07:40:39;;;;;;;15.30;13.80;;;23.40;47.00;;;;;;4994961;28;20175;-54
2023/05/23 07:43:05;;;;;;;15.00;13.03;;;23.50;47.40;;;;;;4995174;28;20182;-56
2023/05/23 07:45:30;;;;;;;15.30;13.77;;;23.50;47.50;;;;;;4995000;28;20700;-56
2023/05/23 07:47:56;;;;;;;14.43;13.13;;;23.50;47.60;;;;;;4995157;28;20406;-53
2023/05/23 07:50:22;;;;;;;13.77;12.47;;;23.60;47.90;;;;;;4995018;28;20179;-56
2023/05/23 07:52:50;;;;;;;13.40;12.20;;;23.70;47.90;;;;;;4994991;28;20703;-53
2023/05/23 07:55:15;;;;;;;16.27;14.77;;;23.80;47.10;;;;;;4995000;28;20241;-53
2023/05/23 07:57:41;;;;;;;14.57;13.20;;;24.00;47.10;;;;;;4995007;28;20494;-55
2023/05/23 08:00:08;;;;;;;16.77;14.60;;;24.10;47.40;;;;;;4994588;28;20237;-55
2023/05/23 08:02:35;;;;;;;15.30;13.70;;;24.30;47.20;;;;;;4994936;28;20167;-52
2023/05/23 08:05:01;;;;;;;14.70;13.30;;;24.50;46.80;;;;;;4994751;28;20860;-54
2023/05/23 08:07:26;;;;;;;13.40;12.13;;;24.70;46.50;;;;;;4994813;28;20558;-52
2023/05/23 08:09:52;;;;;;;12.20;10.90;;;24.90;45.90;;;;;;4977078;28;20509;-57
2023/05/23 08:12:18;;;;;;;13.30;12.20;;;24.90;43.40;;;;;;4994636;28;20195;-54
2023/05/23 08:14:44;;;;;;;14.57;13.27;;;24.60;42.70;;;;;;4994555;28;20319;-54
2023/05/23 08:17:11;;;;;;;14.27;12.97;;;24.40;43.10;;;;;;4994666;28;20195;-56
2023/05/23 08:19:37;;;;;;;14.40;12.90;;;24.40;44.00;;;;;;4994634;28;20573;-53
2023/05/23 08:22:03;;;;;;;15.73;14.13;;;24.50;44.30;;;;;;4994477;28;20837;-56
2023/05/23 08:24:29;;;;;;;15.03;13.67;;;24.50;44.10;;;;;;4994416;28;20274;-55
2023/05/23 08:26:55;;;;;;;14.67;13.17;;;24.60;43.50;;;;;;4994420;28;20406;-53
2023/05/23 08:29:21;;;;;;;15.60;14.10;;;24.60;44.50;;;;;;4976703;28;20418;-53
2023/05/23 08:31:47;;;;;;;16.30;14.67;;;24.70;44.90;;;;;;4994360;28;20458;-55
2023/05/23 08:34:13;;;;;;;16.70;13.50;;;24.80;44.30;;;;;;4993833;28;20254;-53
2023/05/23 08:36:39;;;;;;;15.00;13.70;;;24.80;44.10;;;;;;4994270;28;20198;-55
2023/05/23 08:39:05;;;;;;;16.00;14.43;;;24.80;42.80;;;;;;4993968;28;20399;-55
2023/05/23 08:41:30;;;;;;;15.23;13.83;;;24.90;43.00;;;;;;4994005;28;20411;-52
2023/05/23 08:43:56;;;;;;;13.20;12.10;;;24.90;43.10;;;;;;4994312;28;20207;-54
2023/05/23 08:46:22;;;;;;;16.83;15.37;;;24.90;43.00;;;;;;4993973;28;20195;-52
2023/05/23 08:48:57;;;;;;;14.57;13.33;;;24.80;42.20;;;;;;4993938;28;20415;-54
2023/05/23 08:51:27;;;;;;;14.90;13.60;;;24.80;43.00;;;;;;4993676;28;20532;-52
2023/05/23 08:53:55;;;;;;;13.33;12.13;;;24.70;43.30;;;;;;4994036;28;20406;-52
2023/05/23 08:56:23;;;;;;;13.07;11.80;;;24.80;43.80;;;;;;4993676;28;20426;-55
2023/05/23 08:58:51;;;;;;;15.90;11.90;;;24.90;43.00;;;;;;4994030;28;20409;-53
2023/05/23 09:01:19;;;;;;;13.33;12.13;;;25.00;42.70;;;;;;4993467;28;20816;-53
2023/05/23 09:03:45;;;;;;;15.50;11.10;;;25.00;43.30;;;;;;4993695;28;20505;-52
2023/05/23 09:06:11;;;;;;;12.07;10.87;;;25.00;41.90;;;;;;4993512;28;20493;-52
2023/05/23 09:08:37;;;;;;;13.73;12.40;;;24.80;41.50;;;;;;4993737;28;20418;-53
2023/05/23 09:11:05;;;;;;;12.27;10.73;;;24.80;42.70;;;;;;4975746;28;20465;-53
2023/05/23 09:13:33;;;;;;;13.40;12.20;;;24.80;43.30;;;;;;4993591;28;20407;-52
2023/05/23 09:16:05;;;;;;;14.67;13.37;;;24.90;42.80;;;;;;4993423;28;20430;-56
2023/05/23 09:18:41;;;;;;;18.30;16.50;;;24.90;42.70;;;;;;4993674;28;20421;-52
2023/05/23 09:21:08;;;;;;;21.20;19.23;;;24.90;42.70;;;;;;4993197;28;20500;-55
2023/05/23 09:23:39;;;;;;;20.03;17.77;;;24.70;42.10;;;;;;4993305;28;20407;-56
2023/05/23 09:26:12;;;;;;;22.60;20.20;;;24.60;42.70;;;;;;4993282;28;20437;-52
2023/05/23 09:28:39;;;;;;;22.77;20.40;;;24.60;42.60;;;;;;4993589;28;20390;-55
2023/05/23 09:31:07;;;;;;;23.13;20.93;;;24.40;43.20;;;;;;4992934;28;20410;-55
2023/05/23 09:33:39;;;;;;;24.27;21.77;;;24.40;44.40;;;;;;4993150;28;20411;-52
2023/05/23 09:36:06;;;;;;;26.33;23.23;;;24.40;43.70;;;;;;4993329;28;20434;-54
2023/05/23 09:38:37;;;;;;;27.60;24.10;;;24.30;44.10;;;;;;4993076;28;20884;-53
2023/05/23 09:41:03;;;;;;;28.13;25.33;;;24.10;43.80;;;;;;4993070;28;20395;-51
2023/05/23 09:43:29;;;;;;;31.17;27.87;;;24.10;44.10;;;;;;4992936;28;20425;-55
2023/05/23 09:45:59;;;;;;;30.40;27.27;;;23.90;44.40;;;;;;4992175;28;20514;-52
2023/05/23 09:48:29;;;;;;;29.67;26.43;;;23.80;44.50;;;;;;4975420;28;20410;-50
2023/05/23 09:50:55;;;;;;;31.47;26.70;;;23.80;45.40;;;;;;4992531;28;20421;-55
2023/05/23 09:53:21;;;;;;;30.37;26.53;;;23.70;45.60;;;;;;4993039;28;20411;-50
2023/05/23 09:55:50;;;;;;;30.37;26.10;;;23.70;45.70;;;;;;4992994;28;20283;-57
2023/05/23 09:58:19;;;;;;;32.33;25.87;;;23.80;45.00;;;;;;4993029;28;20421;-54
2023/05/23 10:00:49;;;;;;;24.80;20.27;;;23.80;44.80;;;;;;4992687;28;20418;-52
2023/05/23 10:03:16;;;;;;;23.20;20.83;;;23.60;44.10;;;;;;4992703;28;20773;-54
2023/05/23 10:05:55;;;;;;;24.40;19.37;;;23.50;44.50;;;;;;4992530;28;20880;-57
2023/05/23 10:08:26;;;;;;;22.23;19.30;;;23.50;44.50;;;;;;4992767;28;20464;-52
2023/05/23 10:11:12;;;;;;;21.80;17.27;;;23.50;44.40;;;;;;4992361;28;20820;-55
2023/05/23 10:14:06;;;;;;;21.97;17.80;;;23.50;43.60;;;;;;4992924;28;20410;-51
2023/05/23 10:16:53;;;;;;;19.13;17.07;;;23.40;43.70;;;;;;4988785;28;20461;-53
2023/05/23 10:19:38;;;;;;;18.73;13.57;;;23.30;43.90;;;;;;4992372;28;20429;-54
2023/05/23 10:22:08;;;;;;;19.60;13.70;;;23.30;43.20;;;;;;4992759;28;20477;-55
2023/05/23 10:24:35;;;;;;;16.10;12.53;;;23.30;43.40;;;;;;4992538;28;20549;-56
2023/05/23 10:27:02;;;;;;;14.17;11.50;;;23.40;43.80;;;;;;4992748;28;20410;-52
2023/05/23 10:29:30;;;;;;;13.83;9.83;;;23.50;41.80;;;;;;4992276;28;20406;-56
2023/05/23 10:31:57;;;;;;;13.37;11.03;;;23.60;41.70;;;;;;4992302;28;20553;-53
2023/05/23 10:34:30;;;;;;;12.20;11.00;;;23.80;42.00;;;;;;4992685;28;20501;-52
2023/05/23 10:37:03;;;;;;;10.27;9.27;;;24.20;42.20;;;;;;4992632;28;20418;-55
2023/05/23 10:39:58;;;;;;;11.40;9.57;;;24.50;41.20;;;;;;4992127;28;20904;-52
2023/05/23 10:42:27;;;;;;;12.50;9.67;;;24.60;41.10;;;;;;4992248;28;20406;-57
2023/05/23 10:45:01;;;;;;;12.83;10.57;;;24.80;40.00;;;;;;4992525;28;20442;-52
2023/05/23 10:47:27;;;;;;;10.03;9.03;;;24.90;40.70;;;;;;4992373;28;20418;-53
2023/05/23 10:49:54;;;;;;;12.03;10.70;;;25.00;40.00;;;;;;4992253;28;20417;-55
2023/05/23 10:52:25;;;;;;;12.67;11.40;;;25.10;40.00;;;;;;4992114;28;20545;-53
2023/05/23 10:54:57;;;;;;;13.30;11.17;;;25.00;38.80;;;;;;4992363;28;20435;-53
2023/05/23 10:57:26;;;;;;;11.60;10.13;;;24.90;39.10;;;;;;4993598;28;20960;-54
2023/05/23 10:59:52;;;;;;;11.70;9.60;;;24.80;39.20;;;;;;4995905;28;20419;-52
2023/05/23 11:02:23;;;;;;;10.53;9.50;;;24.90;40.70;;;;;;4995887;28;21182;-55
2023/05/23 11:05:21;;;;;;;12.40;9.50;;;25.00;39.10;;;;;;4995797;28;20508;-54
2023/05/23 11:08:07;;;;;;;11.20;10.00;;;24.80;38.20;;;;;;4995828;28;20430;-55
2023/05/23 11:10:50;;;;;;;14.43;10.50;;;24.80;39.30;;;;;;4995848;28;20394;-55
2023/05/23 11:13:16;;;;;;;8.70;7.47;;;24.80;39.70;;;;;;4995966;28;20450;-52
2023/05/23 11:15:43;;;;;;;10.43;9.43;;;24.90;40.00;;;;;;4995860;28;20951;-52
2023/05/23 11:18:18;;;;;;;12.40;9.83;;;25.00;39.10;;;;;;4996009;28;20457;-54
2023/05/23 11:20:46;;;;;;;10.00;9.00;;;25.10;39.30;;;;;;4995306;28;20429;-53
2023/05/23 11:23:12;;;;;;;10.83;8.83;;;25.20;39.70;;;;;;4995490;28;20501;-55
2023/05/23 11:25:42;;;;;;;11.23;9.50;;;25.20;39.10;;;;;;4995483;28;20434;-55
2023/05/23 11:28:09;;;;;;;12.53;9.10;;;25.30;39.30;;;;;;4995398;28;20912;-52
2023/05/23 11:30:36;;;;;;;12.57;9.90;;;25.30;38.80;;;;;;4995195;28;20494;-53
2023/05/23 11:33:12;;;;;;;12.97;10.73;;;25.10;38.30;;;;;;4995256;28;20457;-55
2023/05/23 11:35:42;;;;;;;10.60;9.03;;;25.00;38.30;;;;;;4995266;28;20855;-50
2023/05/23 11:38:09;;;;;;;10.67;9.57;;;24.80;39.30;;;;;;4995424;28;20550;-54
2023/05/23 11:40:37;;;;;;;11.73;10.07;;;24.60;38.60;;;;;;4995113;28;20409;-56
2023/05/23 11:43:16;;;;;;;10.57;9.47;;;24.40;39.70;;;;;;4994998;28;20422;-53
2023/05/23 11:45:42;;;;;;;9.30;8.40;;;24.40;39.70;;;;;;4995175;28;20418;-55
2023/05/23 11:48:13;;;;;;;12.90;10.10;;;24.50;39.80;;;;;;4995239;28;20406;-55
2023/05/23 11:50:52;;;;;;;11.00;9.17;;;24.50;39.60;;;;;;4995078;28;20437;-53
2023/05/23 11:53:20;;;;;;;10.07;8.83;;;24.50;39.60;;;;;;4994951;28;20956;-55
2023/05/23 11:56:04;;;;;;;12.30;10.10;;;24.50;39.70;;;;;;4995102;28;20477;-53
2023/05/23 11:58:37;;;;;;;9.77;8.77;;;24.60;38.70;;;;;;4995000;28;20413;-52
2023/05/23 12:01:06;;;;;;;11.60;10.17;;;24.60;40.00;;;;;;4994822;28;20714;-54
2023/05/23 12:03:52;;;;;;;10.70;8.93;;;24.70;39.80;;;;;;4994795;28;20901;-54
2023/05/23 12:06:18;;;;;;;12.37;10.43;;;24.80;39.80;;;;;;4993925;28;20544;-57
2023/05/23 12:08:45;;;;;;;10.47;9.47;;;24.90;39.40;;;;;;4994127;28;20410;-55
2023/05/23 12:11:12;;;;;;;11.53;10.33;;;24.90;39.20;;;;;;4994490;28;20413;-53
2023/05/23 12:13:41;;;;;;;11.20;10.10;;;24.80;38.90;;;;;;4994744;28;20450;-55
2023/05/23 12:16:07;;;;;;;15.73;10.63;;;24.80;40.00;;;;;;4994414;28;20784;-56
2023/05/23 12:18:33;;;;;;;13.37;10.87;;;24.80;39.60;;;;;;4994514;28;20406;-53
2023/05/23 12:21:04;;;;;;;12.43;11.23;;;25.00;40.30;;;;;;4994478;28;20402;-56
2023/05/23 12:23:31;;;;;;;12.40;10.93;;;25.20;40.40;;;;;;4994546;28;20403;-52
2023/05/23 12:25:57;;;;;;;12.47;10.10;;;25.30;39.10;;;;;;4994366;28;20493;-52
2023/05/23 12:28:39;;;;;;;12.33;11.10;;;25.30;38.30;;;;;;4994435;28;20424;-55
2023/05/23 12:31:12;;;;;;;13.33;11.93;;;25.20;38.60;;;;;;4994287;28;20460;-52
2023/05/23 12:33:40;;;;;;;10.70;9.60;;;25.00;38.30;;;;;;4994192;28;20406;-54
2023/05/23 12:36:06;;;;;;;12.67;11.17;;;24.90;39.50;;;;;;4994140;28;20526;-53
2023/05/23 12:38:36;;;;;;;13.50;11.47;;;24.80;39.70;;;;;;4994234;28;20430;-51